sensor_id;sensor_type;location;lat;lon;timestamp;pressure;altitude;pressure_sealevel;temperature;humidity
84878;BME280;75140;47.754;8.840;2024-01-27T00:01:17;98398.06;;;5.97;88.42
84878;BME280;75140;47.754;8.840;2024-01-27T00:03:42;98392.88;;;5.96;89.10
84878;BME280;75140;47.754;8.840;2024-01-27T00:06:07;98393.00;;;5.94;89.34
84878;BME280;75140;47.754;8.840;2024-01-27T00:08:33;98396.09;;;5.88;91.30
84878;BME280;75140;47.754;8.840;2024-01-27T00:10:58;98391.34;;;5.81;88.56
84878;BME280;75140;47.754;8.840;2024-01-27T00:13:24;98390.72;;;5.77;88.97
84878;BME280;75140;47.754;8.840;2024-01-27T00:15:49;98399.16;;;5.82;90.08
84878;BME280;75140;47.754;8.840;2024-01-27T00:18:15;98404.03;;;5.76;89.29
84878;BME280;75140;47.754;8.840;2024-01-27T00:20:43;98414.16;;;5.69;89.58
84878;BME280;75140;47.754;8.840;2024-01-27T00:23:09;98398.63;;;5.54;91.13
84878;BME280;75140;47.754;8.840;2024-01-27T00:25:34;98408.50;;;5.63;92.27
84878;BME280;75140;47.754;8.840;2024-01-27T00:27:59;98411.66;;;5.68;92.54
84878;BME280;75140;47.754;8.840;2024-01-27T00:30:25;98404.91;;;5.64;91.40
84878;BME280;75140;47.754;8.840;2024-01-27T00:32:51;98408.91;;;5.69;91.02
84878;BME280;75140;47.754;8.840;2024-01-27T00:35:16;98409.78;;;5.57;90.52
84878;BME280;75140;47.754;8.840;2024-01-27T00:37:42;98408.34;;;5.77;91.57
84878;BME280;75140;47.754;8.840;2024-01-27T00:40:09;98404.97;;;5.75;89.90
84878;BME280;75140;47.754;8.840;2024-01-27T00:42:35;98414.41;;;5.66;89.96
84878;BME280;75140;47.754;8.840;2024-01-27T00:45:00;98413.16;;;5.59;90.54
84878;BME280;75140;47.754;8.840;2024-01-27T00:47:25;98411.22;;;5.38;91.89
84878;BME280;75140;47.754;8.840;2024-01-27T00:49:51;98419.19;;;5.49;90.91
84878;BME280;75140;47.754;8.840;2024-01-27T00:52:16;98418.63;;;5.33;90.81
84878;BME280;75140;47.754;8.840;2024-01-27T00:54:41;98431.88;;;5.31;91.27
84878;BME280;75140;47.754;8.840;2024-01-27T00:57:07;98426.59;;;5.31;91.68
84878;BME280;75140;47.754;8.840;2024-01-27T00:59:32;98438.09;;;5.30;91.89
84878;BME280;75140;47.754;8.840;2024-01-27T01:01:57;98430.72;;;5.23;92.73
84878;BME280;75140;47.754;8.840;2024-01-27T01:04:23;98438.09;;;5.30;91.45
84878;BME280;75140;47.754;8.840;2024-01-27T01:06:48;98439.47;;;5.36;90.87
84878;BME280;75140;47.754;8.840;2024-01-27T01:09:13;98444.00;;;5.34;88.97
84878;BME280;75140;47.754;8.840;2024-01-27T01:11:39;98443.19;;;5.21;90.29
84878;BME280;75140;47.754;8.840;2024-01-27T01:14:04;98453.91;;;5.18;90.36
84878;BME280;75140;47.754;8.840;2024-01-27T01:16:29;98443.59;;;5.15;89.36
84878;BME280;75140;47.754;8.840;2024-01-27T01:18:55;98447.41;;;5.11;89.45
84878;BME280;75140;47.754;8.840;2024-01-27T01:21:20;98455.19;;;5.00;90.69
84878;BME280;75140;47.754;8.840;2024-01-27T01:23:46;98455.91;;;4.89;90.89
84878;BME280;75140;47.754;8.840;2024-01-27T01:26:11;98449.09;;;4.86;91.79
84878;BME280;75140;47.754;8.840;2024-01-27T01:28:36;98453.94;;;4.80;91.83
84878;BME280;75140;47.754;8.840;2024-01-27T01:31:02;98453.19;;;4.65;91.05
84878;BME280;75140;47.754;8.840;2024-01-27T01:33:27;98466.53;;;4.62;91.72
84878;BME280;75140;47.754;8.840;2024-01-27T01:35:53;98459.91;;;4.57;92.03
84878;BME280;75140;47.754;8.840;2024-01-27T01:38:18;98451.59;;;4.50;93.17
84878;BME280;75140;47.754;8.840;2024-01-27T01:40:44;98454.97;;;4.52;94.51
84878;BME280;75140;47.754;8.840;2024-01-27T01:43:10;98452.72;;;4.46;92.70
84878;BME280;75140;47.754;8.840;2024-01-27T01:45:39;98455.56;;;4.43;92.89
84878;BME280;75140;47.754;8.840;2024-01-27T01:48:05;98467.53;;;4.35;92.57
84878;BME280;75140;47.754;8.840;2024-01-27T01:50:31;98455.75;;;4.28;92.99
84878;BME280;75140;47.754;8.840;2024-01-27T01:52:57;98469.75;;;4.28;92.87
84878;BME280;75140;47.754;8.840;2024-01-27T01:55:23;98463.69;;;4.14;92.63
84878;BME280;75140;47.754;8.840;2024-01-27T01:57:49;98467.28;;;4.13;93.93
84878;BME280;75140;47.754;8.840;2024-01-27T02:00:15;98461.78;;;4.03;94.05
84878;BME280;75140;47.754;8.840;2024-01-27T02:02:43;98471.59;;;3.87;93.25
84878;BME280;75140;47.754;8.840;2024-01-27T02:05:09;98474.81;;;3.78;94.41
84878;BME280;75140;47.754;8.840;2024-01-27T02:07:35;98470.38;;;3.66;93.36
84878;BME280;75140;47.754;8.840;2024-01-27T02:10:01;98475.97;;;3.74;94.60
84878;BME280;75140;47.754;8.840;2024-01-27T02:12:27;98471.53;;;3.75;92.99
84878;BME280;75140;47.754;8.840;2024-01-27T02:14:52;98464.38;;;3.64;93.93
84878;BME280;75140;47.754;8.840;2024-01-27T02:17:18;98468.34;;;3.43;95.55
84878;BME280;75140;47.754;8.840;2024-01-27T02:19:43;98478.06;;;3.41;94.80
84878;BME280;75140;47.754;8.840;2024-01-27T02:22:09;98475.25;;;3.44;95.04
84878;BME280;75140;47.754;8.840;2024-01-27T02:24:34;98478.47;;;3.35;95.83
84878;BME280;75140;47.754;8.840;2024-01-27T02:26:59;98477.72;;;3.33;96.43
84878;BME280;75140;47.754;8.840;2024-01-27T02:29:24;98482.22;;;3.31;95.90
84878;BME280;75140;47.754;8.840;2024-01-27T02:31:52;98480.75;;;3.27;95.59
84878;BME280;75140;47.754;8.840;2024-01-27T02:34:18;98490.94;;;3.17;95.20
84878;BME280;75140;47.754;8.840;2024-01-27T02:36:43;98490.00;;;3.04;95.92
84878;BME280;75140;47.754;8.840;2024-01-27T02:39:09;98494.22;;;3.07;95.89
84878;BME280;75140;47.754;8.840;2024-01-27T02:41:34;98500.59;;;3.03;96.11
84878;BME280;75140;47.754;8.840;2024-01-27T02:44:06;98493.47;;;2.91;95.74
84878;BME280;75140;47.754;8.840;2024-01-27T02:46:32;98490.63;;;2.80;95.45
84878;BME280;75140;47.754;8.840;2024-01-27T02:48:57;98493.47;;;2.47;96.35
84878;BME280;75140;47.754;8.840;2024-01-27T02:51:23;98509.88;;;2.51;96.20
84878;BME280;75140;47.754;8.840;2024-01-27T02:53:48;98502.94;;;2.50;96.75
84878;BME280;75140;47.754;8.840;2024-01-27T02:56:16;98505.19;;;2.56;96.38
84878;BME280;75140;47.754;8.840;2024-01-27T02:58:41;98495.47;;;2.58;96.41
84878;BME280;75140;47.754;8.840;2024-01-27T03:01:07;98499.94;;;2.56;96.67
84878;BME280;75140;47.754;8.840;2024-01-27T03:03:32;98502.66;;;2.54;96.87
84878;BME280;75140;47.754;8.840;2024-01-27T03:05:58;98492.09;;;2.56;95.75
84878;BME280;75140;47.754;8.840;2024-01-27T03:08:23;98490.59;;;2.52;95.69
84878;BME280;75140;47.754;8.840;2024-01-27T03:10:48;98506.50;;;2.49;96.35
84878;BME280;75140;47.754;8.840;2024-01-27T03:13:14;98504.41;;;2.39;95.64
84878;BME280;75140;47.754;8.840;2024-01-27T03:15:39;98513.66;;;2.31;95.84
84878;BME280;75140;47.754;8.840;2024-01-27T03:18:05;98507.44;;;2.18;96.69
84878;BME280;75140;47.754;8.840;2024-01-27T03:20:30;98504.06;;;2.16;96.38
84878;BME280;75140;47.754;8.840;2024-01-27T03:22:58;98498.72;;;2.17;96.10
84878;BME280;75140;47.754;8.840;2024-01-27T03:25:24;98513.16;;;2.24;96.40
84878;BME280;75140;47.754;8.840;2024-01-27T03:27:51;98513.88;;;2.12;96.45
84878;BME280;75140;47.754;8.840;2024-01-27T03:30:16;98517.50;;;2.10;96.45
84878;BME280;75140;47.754;8.840;2024-01-27T03:32:42;98530.28;;;2.00;96.54
84878;BME280;75140;47.754;8.840;2024-01-27T03:35:07;98526.22;;;1.79;96.21
84878;BME280;75140;47.754;8.840;2024-01-27T03:37:32;98528.16;;;1.76;96.55
84878;BME280;75140;47.754;8.840;2024-01-27T03:39:59;98540.66;;;1.71;96.32
84878;BME280;75140;47.754;8.840;2024-01-27T03:42:24;98533.97;;;1.65;95.83
84878;BME280;75140;47.754;8.840;2024-01-27T03:44:50;98533.47;;;1.74;96.11
84878;BME280;75140;47.754;8.840;2024-01-27T03:47:16;98550.13;;;1.73;96.53
84878;BME280;75140;47.754;8.840;2024-01-27T03:49:42;98543.44;;;1.52;96.66
84878;BME280;75140;47.754;8.840;2024-01-27T03:52:07;98545.28;;;1.50;97.70
84878;BME280;75140;47.754;8.840;2024-01-27T03:54:33;98539.47;;;1.61;97.43
84878;BME280;75140;47.754;8.840;2024-01-27T03:56:58;98546.22;;;1.49;95.80
84878;BME280;75140;47.754;8.840;2024-01-27T03:59:24;98543.44;;;1.52;95.79
84878;BME280;75140;47.754;8.840;2024-01-27T04:01:49;98555.91;;;1.47;96.13
84878;BME280;75140;47.754;8.840;2024-01-27T04:04:14;98552.88;;;1.39;95.94
84878;BME280;75140;47.754;8.840;2024-01-27T04:06:40;98554.97;;;1.48;96.39
84878;BME280;75140;47.754;8.840;2024-01-27T04:09:06;98567.28;;;1.31;96.93
84878;BME280;75140;47.754;8.840;2024-01-27T04:11:35;98560.09;;;1.18;97.04
84878;BME280;75140;47.754;8.840;2024-01-27T04:14:06;98561.97;;;1.32;97.17
84878;BME280;75140;47.754;8.840;2024-01-27T04:16:31;98557.84;;;1.11;96.30
84878;BME280;75140;47.754;8.840;2024-01-27T04:18:57;98554.34;;;1.12;96.61
84878;BME280;75140;47.754;8.840;2024-01-27T04:21:22;98556.19;;;1.10;96.63
84878;BME280;75140;47.754;8.840;2024-01-27T04:23:48;98562.34;;;1.09;96.64
84878;BME280;75140;47.754;8.840;2024-01-27T04:26:13;98553.50;;;0.94;97.32
84878;BME280;75140;47.754;8.840;2024-01-27T04:28:39;98562.97;;;0.97;97.48
84878;BME280;75140;47.754;8.840;2024-01-27T04:31:04;98565.41;;;1.00;97.33
84878;BME280;75140;47.754;8.840;2024-01-27T04:33:30;98568.41;;;0.92;96.85
84878;BME280;75140;47.754;8.840;2024-01-27T04:35:55;98567.97;;;1.01;96.92
84878;BME280;75140;47.754;8.840;2024-01-27T04:38:21;98568.66;;;1.05;96.14
84878;BME280;75140;47.754;8.840;2024-01-27T04:40:46;98571.88;;;0.93;97.00
84878;BME280;75140;47.754;8.840;2024-01-27T04:43:18;98566.22;;;0.85;97.22
84878;BME280;75140;47.754;8.840;2024-01-27T04:45:45;98571.28;;;0.88;97.11
84878;BME280;75140;47.754;8.840;2024-01-27T04:48:10;98565.66;;;0.78;96.97
84878;BME280;75140;47.754;8.840;2024-01-27T04:50:36;98566.44;;;0.80;96.72
84878;BME280;75140;47.754;8.840;2024-01-27T04:53:02;98565.59;;;0.80;95.92
84878;BME280;75140;47.754;8.840;2024-01-27T04:55:27;98567.59;;;0.75;96.25
84878;BME280;75140;47.754;8.840;2024-01-27T04:57:53;98571.75;;;0.79;96.46
84878;BME280;75140;47.754;8.840;2024-01-27T05:00:19;98565.00;;;0.75;96.47
84878;BME280;75140;47.754;8.840;2024-01-27T05:02:44;98567.00;;;0.70;96.59
84878;BME280;75140;47.754;8.840;2024-01-27T05:05:10;98560.06;;;0.69;96.43
84878;BME280;75140;47.754;8.840;2024-01-27T05:07:37;98562.91;;;0.64;96.31
84878;BME280;75140;47.754;8.840;2024-01-27T05:10:03;98565.91;;;0.57;96.66
84878;BME280;75140;47.754;8.840;2024-01-27T05:12:28;98568.97;;;0.65;96.47
84878;BME280;75140;47.754;8.840;2024-01-27T05:14:54;98573.13;;;0.52;96.94
84878;BME280;75140;47.754;8.840;2024-01-27T05:17:19;98566.59;;;0.43;97.78
84878;BME280;75140;47.754;8.840;2024-01-27T05:19:44;98575.13;;;0.47;97.83
84878;BME280;75140;47.754;8.840;2024-01-27T05:22:10;98565.28;;;0.52;97.04
84878;BME280;75140;47.754;8.840;2024-01-27T05:24:35;98567.44;;;0.61;97.86
84878;BME280;75140;47.754;8.840;2024-01-27T05:27:01;98562.69;;;0.52;96.95
84878;BME280;75140;47.754;8.840;2024-01-27T05:29:27;98573.19;;;0.50;96.88
84878;BME280;75140;47.754;8.840;2024-01-27T05:31:53;98562.38;;;0.41;96.80
84878;BME280;75140;47.754;8.840;2024-01-27T05:34:18;98576.75;;;0.49;96.86
84878;BME280;75140;47.754;8.840;2024-01-27T05:36:43;98574.66;;;0.39;96.45
84878;BME280;75140;47.754;8.840;2024-01-27T05:39:09;98582.50;;;0.39;97.45
84878;BME280;75140;47.754;8.840;2024-01-27T05:41:34;98579.41;;;0.31;97.39
84878;BME280;75140;47.754;8.840;2024-01-27T05:44:00;98570.66;;;0.32;97.14
84878;BME280;75140;47.754;8.840;2024-01-27T05:46:25;98568.75;;;0.35;97.72
84878;BME280;75140;47.754;8.840;2024-01-27T05:48:51;98563.75;;;0.31;98.09
84878;BME280;75140;47.754;8.840;2024-01-27T05:51:19;98565.72;;;0.26;97.85
84878;BME280;75140;47.754;8.840;2024-01-27T05:53:45;98545.75;;;0.25;97.95
84878;BME280;75140;47.754;8.840;2024-01-27T05:56:11;98561.97;;;0.31;97.54
84878;BME280;75140;47.754;8.840;2024-01-27T05:58:36;98569.56;;;0.19;97.61
84878;BME280;75140;47.754;8.840;2024-01-27T06:01:02;98566.88;;;0.20;97.72
84878;BME280;75140;47.754;8.840;2024-01-27T06:03:27;98571.31;;;0.18;97.46
84878;BME280;75140;47.754;8.840;2024-01-27T06:05:53;98574.91;;;0.16;97.65
84878;BME280;75140;47.754;8.840;2024-01-27T06:08:18;98578.88;;;0.06;97.69
84878;BME280;75140;47.754;8.840;2024-01-27T06:10:45;98570.16;;;0.07;97.49
84878;BME280;75140;47.754;8.840;2024-01-27T06:13:10;98574.81;;;0.00;97.92
84878;BME280;75140;47.754;8.840;2024-01-27T06:15:36;98572.69;;;0.08;98.04
84878;BME280;75140;47.754;8.840;2024-01-27T06:18:01;98573.66;;;0.06;97.35
84878;BME280;75140;47.754;8.840;2024-01-27T06:20:26;98570.47;;;0.18;97.97
84878;BME280;75140;47.754;8.840;2024-01-27T06:22:52;98583.91;;;0.10;98.03
84878;BME280;75140;47.754;8.840;2024-01-27T06:25:17;98583.97;;;0.26;97.19
84878;BME280;75140;47.754;8.840;2024-01-27T06:27:43;98588.63;;;0.38;96.98
84878;BME280;75140;47.754;8.840;2024-01-27T06:30:09;98589.91;;;0.29;97.33
84878;BME280;75140;47.754;8.840;2024-01-27T06:32:35;98595.22;;;0.28;97.10
84878;BME280;75140;47.754;8.840;2024-01-27T06:35:01;98601.38;;;0.27;97.42
84878;BME280;75140;47.754;8.840;2024-01-27T06:37:26;98601.97;;;0.32;97.33
84878;BME280;75140;47.754;8.840;2024-01-27T06:39:51;98590.13;;;0.25;97.18
84878;BME280;75140;47.754;8.840;2024-01-27T06:42:17;98588.59;;;0.21;95.95
84878;BME280;75140;47.754;8.840;2024-01-27T06:44:42;98598.28;;;0.19;97.35
84878;BME280;75140;47.754;8.840;2024-01-27T06:47:07;98590.28;;;0.22;96.95
84878;BME280;75140;47.754;8.840;2024-01-27T06:49:33;98595.94;;;0.13;96.89
84878;BME280;75140;47.754;8.840;2024-01-27T06:51:59;98609.06;;;0.11;96.67
84878;BME280;75140;47.754;8.840;2024-01-27T06:54:24;98602.94;;;-0.07;97.01
84878;BME280;75140;47.754;8.840;2024-01-27T06:56:49;98598.44;;;-0.03;97.06
84878;BME280;75140;47.754;8.840;2024-01-27T06:59:14;98612.19;;;0.00;97.71
84878;BME280;75140;47.754;8.840;2024-01-27T07:01:48;98610.19;;;0.06;96.64
84878;BME280;75140;47.754;8.840;2024-01-27T07:04:14;98604.28;;;0.02;96.33
84878;BME280;75140;47.754;8.840;2024-01-27T07:06:39;98605.28;;;-0.01;96.81
84878;BME280;75140;47.754;8.840;2024-01-27T07:09:05;98606.53;;;0.10;96.68
84878;BME280;75140;47.754;8.840;2024-01-27T07:11:32;98614.72;;;0.02;96.02
84878;BME280;75140;47.754;8.840;2024-01-27T07:13:57;98614.31;;;-0.08;96.66
84878;BME280;75140;47.754;8.840;2024-01-27T07:16:23;98612.50;;;-0.06;96.84
84878;BME280;75140;47.754;8.840;2024-01-27T07:18:49;98606.81;;;0.03;96.43
84878;BME280;75140;47.754;8.840;2024-01-27T07:21:15;98609.31;;;0.07;96.50
84878;BME280;75140;47.754;8.840;2024-01-27T07:23:41;98609.16;;;0.10;96.44
84878;BME280;75140;47.754;8.840;2024-01-27T07:26:08;98604.09;;;0.07;96.72
84878;BME280;75140;47.754;8.840;2024-01-27T07:28:34;98605.53;;;0.12;96.92
84878;BME280;75140;47.754;8.840;2024-01-27T07:30:59;98604.97;;;0.06;96.56
84878;BME280;75140;47.754;8.840;2024-01-27T07:33:24;98615.66;;;0.01;96.19
84878;BME280;75140;47.754;8.840;2024-01-27T07:35:50;98619.22;;;-0.02;96.62
84878;BME280;75140;47.754;8.840;2024-01-27T07:38:15;98616.06;;;0.11;96.69
84878;BME280;75140;47.754;8.840;2024-01-27T07:40:41;98604.47;;;0.16;96.41
84878;BME280;75140;47.754;8.840;2024-01-27T07:43:06;98604.25;;;0.21;95.76
84878;BME280;75140;47.754;8.840;2024-01-27T07:45:32;98606.03;;;0.20;95.88
84878;BME280;75140;47.754;8.840;2024-01-27T07:47:58;98604.13;;;0.24;95.37
84878;BME280;75140;47.754;8.840;2024-01-27T07:50:23;98608.75;;;0.36;95.58
84878;BME280;75140;47.754;8.840;2024-01-27T07:52:48;98609.16;;;0.45;95.19
84878;BME280;75140;47.754;8.840;2024-01-27T07:55:14;98615.94;;;0.49;96.03
84878;BME280;75140;47.754;8.840;2024-01-27T07:57:39;98604.84;;;0.44;96.37
84878;BME280;75140;47.754;8.840;2024-01-27T08:00:05;98624.66;;;0.48;96.96
84878;BME280;75140;47.754;8.840;2024-01-27T08:02:31;98619.28;;;0.51;96.80
84878;BME280;75140;47.754;8.840;2024-01-27T08:04:57;98610.63;;;0.68;96.22
84878;BME280;75140;47.754;8.840;2024-01-27T08:07:23;98606.47;;;0.81;95.79
84878;BME280;75140;47.754;8.840;2024-01-27T08:09:48;98606.81;;;0.75;96.19
84878;BME280;75140;47.754;8.840;2024-01-27T08:12:13;98617.63;;;0.84;96.16
84878;BME280;75140;47.754;8.840;2024-01-27T08:14:39;98621.19;;;0.83;95.98
84878;BME280;75140;47.754;8.840;2024-01-27T08:17:04;98628.78;;;0.88;96.57
84878;BME280;75140;47.754;8.840;2024-01-27T08:19:30;98619.00;;;0.91;95.91
84878;BME280;75140;47.754;8.840;2024-01-27T08:21:56;98610.06;;;0.95;95.14
84878;BME280;75140;47.754;8.840;2024-01-27T08:24:22;98606.41;;;0.99;95.58
84878;BME280;75140;47.754;8.840;2024-01-27T08:26:49;98603.53;;;1.04;95.73
84878;BME280;75140;47.754;8.840;2024-01-27T08:29:15;98612.91;;;1.25;95.58
84878;BME280;75140;47.754;8.840;2024-01-27T08:31:40;98612.59;;;1.31;95.86
84878;BME280;75140;47.754;8.840;2024-01-27T08:34:06;98618.03;;;1.44;95.28
84878;BME280;75140;47.754;8.840;2024-01-27T08:36:32;98622.25;;;1.46;94.66
84878;BME280;75140;47.754;8.840;2024-01-27T08:38:59;98623.47;;;1.56;94.50
84878;BME280;75140;47.754;8.840;2024-01-27T08:41:24;98612.94;;;1.73;93.74
84878;BME280;75140;47.754;8.840;2024-01-27T08:43:49;98605.84;;;1.91;94.24
84878;BME280;75140;47.754;8.840;2024-01-27T08:46:15;98595.47;;;2.05;93.55
84878;BME280;75140;47.754;8.840;2024-01-27T08:48:40;98598.00;;;2.22;93.22
84878;BME280;75140;47.754;8.840;2024-01-27T08:51:08;98599.59;;;2.40;91.24
84878;BME280;75140;47.754;8.840;2024-01-27T08:53:34;98597.25;;;2.65;90.00
84878;BME280;75140;47.754;8.840;2024-01-27T08:56:00;98595.69;;;2.77;90.41
84878;BME280;75140;47.754;8.840;2024-01-27T08:58:26;98597.78;;;2.86;89.56
84878;BME280;75140;47.754;8.840;2024-01-27T09:00:51;98609.25;;;2.99;89.64
84878;BME280;75140;47.754;8.840;2024-01-27T09:03:18;98611.06;;;3.12;86.54
84878;BME280;75140;47.754;8.840;2024-01-27T09:05:46;98596.00;;;3.30;86.95
84878;BME280;75140;47.754;8.840;2024-01-27T09:08:11;98595.25;;;3.42;86.29
84878;BME280;75140;47.754;8.840;2024-01-27T09:10:37;98595.34;;;3.54;86.98
84878;BME280;75140;47.754;8.840;2024-01-27T09:13:02;98602.75;;;3.62;85.37
84878;BME280;75140;47.754;8.840;2024-01-27T09:15:27;98603.13;;;3.70;84.80
84878;BME280;75140;47.754;8.840;2024-01-27T09:17:53;98594.22;;;3.73;84.69
84878;BME280;75140;47.754;8.840;2024-01-27T09:20:19;98585.50;;;3.86;84.73
84878;BME280;75140;47.754;8.840;2024-01-27T09:22:44;98593.44;;;3.99;84.22
84878;BME280;75140;47.754;8.840;2024-01-27T09:25:12;98582.75;;;4.02;84.48
84878;BME280;75140;47.754;8.840;2024-01-27T09:27:38;98590.22;;;4.08;83.73
84878;BME280;75140;47.754;8.840;2024-01-27T09:30:04;98588.81;;;4.16;82.61
84878;BME280;75140;47.754;8.840;2024-01-27T09:32:30;98592.16;;;4.32;84.10
84878;BME280;75140;47.754;8.840;2024-01-27T09:34:55;98595.88;;;4.42;82.55
84878;BME280;75140;47.754;8.840;2024-01-27T09:37:21;98609.34;;;4.50;82.23
84878;BME280;75140;47.754;8.840;2024-01-27T09:39:46;98601.38;;;4.52;80.80
84878;BME280;75140;47.754;8.840;2024-01-27T09:42:13;98610.09;;;4.52;81.95
84878;BME280;75140;47.754;8.840;2024-01-27T09:44:43;98596.91;;;4.40;82.07
84878;BME280;75140;47.754;8.840;2024-01-27T09:47:11;98593.69;;;4.49;81.75
84878;BME280;75140;47.754;8.840;2024-01-27T09:49:39;98586.22;;;4.55;81.75
84878;BME280;75140;47.754;8.840;2024-01-27T09:52:05;98578.81;;;4.74;81.38
84878;BME280;75140;47.754;8.840;2024-01-27T09:54:31;98588.00;;;4.81;81.67
84878;BME280;75140;47.754;8.840;2024-01-27T09:56:57;98586.53;;;4.90;80.02
84878;BME280;75140;47.754;8.840;2024-01-27T09:59:23;98584.84;;;4.89;79.71
84878;BME280;75140;47.754;8.840;2024-01-27T10:01:52;98593.50;;;5.04;79.95
84878;BME280;75140;47.754;8.840;2024-01-27T10:04:19;98600.78;;;5.25;79.74
84878;BME280;75140;47.754;8.840;2024-01-27T10:06:45;98598.06;;;5.39;79.86
84878;BME280;75140;47.754;8.840;2024-01-27T10:09:11;98588.19;;;5.43;78.52
84878;BME280;75140;47.754;8.840;2024-01-27T10:11:39;98588.03;;;5.57;77.97
84878;BME280;75140;47.754;8.840;2024-01-27T10:14:06;98579.00;;;5.61;77.77
84878;BME280;75140;47.754;8.840;2024-01-27T10:16:40;98569.97;;;6.14;76.00
84878;BME280;75140;47.754;8.840;2024-01-27T10:19:06;98587.91;;;7.71;69.39
84878;BME280;75140;47.754;8.840;2024-01-27T10:21:31;98588.25;;;9.48;63.71
84878;BME280;75140;47.754;8.840;2024-01-27T10:23:57;98579.50;;;10.85;57.90
84878;BME280;75140;47.754;8.840;2024-01-27T10:26:23;98587.59;;;11.41;55.38
84878;BME280;75140;47.754;8.840;2024-01-27T10:28:57;98575.91;;;11.61;53.63
84878;BME280;75140;47.754;8.840;2024-01-27T10:31:27;98574.38;;;13.47;48.88
84878;BME280;75140;47.754;8.840;2024-01-27T10:33:54;98575.03;;;13.06;50.14
84878;BME280;75140;47.754;8.840;2024-01-27T10:36:20;98564.88;;;13.96;47.65
84878;BME280;75140;47.754;8.840;2024-01-27T10:38:45;98562.06;;;14.05;46.72
84878;BME280;75140;47.754;8.840;2024-01-27T10:41:11;98554.50;;;13.16;49.24
84878;BME280;75140;47.754;8.840;2024-01-27T10:43:37;98558.50;;;13.38;47.81
84878;BME280;75140;47.754;8.840;2024-01-27T10:46:07;98544.50;;;13.69;47.86
84878;BME280;75140;47.754;8.840;2024-01-27T10:48:36;98537.50;;;15.33;41.77
84878;BME280;75140;47.754;8.840;2024-01-27T10:51:09;98533.19;;;14.34;42.11
84878;BME280;75140;47.754;8.840;2024-01-27T10:53:35;98520.28;;;16.45;39.98
84878;BME280;75140;47.754;8.840;2024-01-27T10:56:03;98526.63;;;16.14;40.77
84878;BME280;75140;47.754;8.840;2024-01-27T10:58:33;98518.50;;;14.38;44.47
84878;BME280;75140;47.754;8.840;2024-01-27T11:01:08;98519.66;;;13.00;46.38
84878;BME280;75140;47.754;8.840;2024-01-27T11:03:37;98513.44;;;13.86;46.48
84878;BME280;75140;47.754;8.840;2024-01-27T11:06:07;98520.59;;;15.01;43.41
84878;BME280;75140;47.754;8.840;2024-01-27T11:08:33;98524.09;;;14.85;44.58
84878;BME280;75140;47.754;8.840;2024-01-27T11:11:00;98507.75;;;17.36;38.29
84878;BME280;75140;47.754;8.840;2024-01-27T11:13:28;98514.56;;;15.55;42.38
84878;BME280;75140;47.754;8.840;2024-01-27T11:15:54;98509.31;;;14.41;42.97
84878;BME280;75140;47.754;8.840;2024-01-27T11:18:20;98504.91;;;16.39;39.68
84878;BME280;75140;47.754;8.840;2024-01-27T11:20:45;98504.53;;;15.01;43.13
84878;BME280;75140;47.754;8.840;2024-01-27T11:23:12;98501.72;;;15.42;42.08
84878;BME280;75140;47.754;8.840;2024-01-27T11:25:39;98497.19;;;14.71;43.03
84878;BME280;75140;47.754;8.840;2024-01-27T11:28:16;98488.72;;;14.25;43.69
84878;BME280;75140;47.754;8.840;2024-01-27T11:30:48;98490.97;;;17.34;38.54
84878;BME280;75140;47.754;8.840;2024-01-27T11:33:14;98492.59;;;16.22;40.81
84878;BME280;75140;47.754;8.840;2024-01-27T11:35:40;98481.03;;;16.52;39.28
84878;BME280;75140;47.754;8.840;2024-01-27T11:38:05;98471.16;;;16.22;40.16
84878;BME280;75140;47.754;8.840;2024-01-27T11:40:31;98477.34;;;15.84;41.62
84878;BME280;75140;47.754;8.840;2024-01-27T11:42:57;98468.44;;;17.21;39.20
84878;BME280;75140;47.754;8.840;2024-01-27T11:45:23;98479.94;;;16.92;39.92
84878;BME280;75140;47.754;8.840;2024-01-27T11:47:49;98478.91;;;15.63;42.43
84878;BME280;75140;47.754;8.840;2024-01-27T11:50:17;98481.22;;;15.74;41.26
84878;BME280;75140;47.754;8.840;2024-01-27T11:52:42;98483.31;;;15.39;41.33
84878;BME280;75140;47.754;8.840;2024-01-27T11:55:08;98469.75;;;16.34;40.46
84878;BME280;75140;47.754;8.840;2024-01-27T11:57:34;98474.59;;;15.45;41.94
84878;BME280;75140;47.754;8.840;2024-01-27T11:59:59;98485.50;;;15.44;42.10
84878;BME280;75140;47.754;8.840;2024-01-27T12:02:24;98473.38;;;15.64;39.18
84878;BME280;75140;47.754;8.840;2024-01-27T12:04:50;98475.25;;;16.63;38.65
84878;BME280;75140;47.754;8.840;2024-01-27T12:07:16;98464.13;;;17.34;36.52
84878;BME280;75140;47.754;8.840;2024-01-27T12:09:45;98463.28;;;15.82;40.61
84878;BME280;75140;47.754;8.840;2024-01-27T12:12:12;98467.25;;;15.15;42.95
84878;BME280;75140;47.754;8.840;2024-01-27T12:14:44;98479.13;;;15.45;42.07
84878;BME280;75140;47.754;8.840;2024-01-27T12:17:10;98471.25;;;15.90;40.48
84878;BME280;75140;47.754;8.840;2024-01-27T12:19:36;98462.88;;;16.01;40.86
84878;BME280;75140;47.754;8.840;2024-01-27T12:22:02;98461.72;;;15.33;42.59
84878;BME280;75140;47.754;8.840;2024-01-27T12:24:28;98450.69;;;16.52;38.78
84878;BME280;75140;47.754;8.840;2024-01-27T12:26:55;98463.44;;;14.78;44.11
84878;BME280;75140;47.754;8.840;2024-01-27T12:29:22;98456.91;;;16.52;39.17
84878;BME280;75140;47.754;8.840;2024-01-27T12:31:48;98458.53;;;15.53;41.79
84878;BME280;75140;47.754;8.840;2024-01-27T12:34:13;98442.56;;;16.37;40.46
84878;BME280;75140;47.754;8.840;2024-01-27T12:36:42;98457.03;;;15.43;42.22
84878;BME280;75140;47.754;8.840;2024-01-27T12:39:08;98448.03;;;14.56;42.64
84878;BME280;75140;47.754;8.840;2024-01-27T12:41:34;98443.31;;;14.33;45.19
84878;BME280;75140;47.754;8.840;2024-01-27T12:44:00;98439.34;;;15.02;43.00
84878;BME280;75140;47.754;8.840;2024-01-27T12:46:26;98432.00;;;15.75;40.54
84878;BME280;75140;47.754;8.840;2024-01-27T12:48:52;98420.78;;;14.92;41.63
84878;BME280;75140;47.754;8.840;2024-01-27T12:51:18;98428.81;;;14.76;43.60
84878;BME280;75140;47.754;8.840;2024-01-27T12:53:44;98418.81;;;16.04;39.88
84878;BME280;75140;47.754;8.840;2024-01-27T12:56:15;98420.91;;;15.39;40.85
84878;BME280;75140;47.754;8.840;2024-01-27T12:58:41;98415.16;;;15.58;39.07
84878;BME280;75140;47.754;8.840;2024-01-27T13:01:08;98416.22;;;15.41;41.96